Seabourn Pride — C6FR5 — position and weather

sailwx.info

Track history (hours):
 
Tides and Currents Weather Stations Pressure Air Temp Water Temp Dewpoint Dewpoint Depression Visibility Wind Speed Wind Dir Waves Ship Positions

Seabourn Pride

Operator: Cunard Seabourn

Last reported at 2019-Sep-13 23:34 UTC. Time now 2019-Sep-17 08:20 UTC.
Position N 41°43' W 070°39'.

Length 134 m; draft 5.7 m.

Type: Ship. MMSI: 311084000.

Date/timePositionNaut miles runAvg speedWind from/ knotsBaromVisibWave heightAir tempDewpointWater temp
2019-Sep-13 23:34N 41°43' W 070°39'111.9
2019-Sep-13 23:28N 41°42' W 070°40'613.7
2019-Sep-13 23:00N 41°36' W 070°43'1014.2
2019-Sep-13 22:18N 41°30' W 070°53'153 6.6
2019-Sep-12 23:08N 40°36' W 074°03'212.3
2019-Sep-12 22:58N 40°38' W 074°03'612.0
2019-Sep-12 22:30N 40°43' W 074°01'3 5.0
2019-Sep-12 21:55N 40°46' W 074°00'0 0.0
2019-Sep-12 15:13N 40°46' W 074°00'0 0.0
2019-Sep-12 11:23N 40°46' W 074°00'0 1.0
2019-Sep-12 10:57N 40°46' W 074°00'4 8.5
2019-Sep-12 10:30N 40°42' W 074°02'1910.9
2019-Sep-12 08:45N 40°27' W 073°46'2 8.0
2019-Sep-12 08:30N 40°27' W 073°44'5 8.8
2019-Sep-12 08:00N 40°28' W 073°38'510.1
2019-Sep-12 07:30N 40°28' W 073°31'7710.2
2019-Sep-11 23:56N 40°54' W 071°56'810.6
2019-Sep-11 23:12N 40°58' W 071°47'210.6
2019-Sep-11 23:00N 40°59' W 071°45'510.8
2019-Sep-11 22:30N 41°02' W 071°38'510.5
2019-Sep-11 22:00N 41°03' W 071°32'510.7
2019-Sep-11 21:31N 41°05' W 071°25'510.4
2019-Sep-11 21:01N 41°09' W 071°21'510.8
2019-Sep-11 20:30N 41°14' W 071°17'511.0
2019-Sep-11 20:00N 41°18' W 071°12'710.1
2019-Sep-11 19:21N 41°24' W 071°08'1613.6
2019-Sep-11 18:11N 41°31' W 070°50'313.8
2019-Sep-11 18:00N 41°32' W 070°47'713.9
2019-Sep-11 17:29N 41°39' W 070°42'  
2019-Sep-04 19:37N 47°29' W 052°35'315.0
2019-Sep-04 19:24N 47°32' W 052°35'510.7
2019-Sep-04 18:57N 47°34' W 052°41'1 0.2
2019-Sep-04 16:10N 47°34' W 052°42'0 0.0
2019-Sep-04 15:42N 47°34' W 052°42'0 0.0
2019-Sep-04 14:48N 47°34' W 052°42'0 0.0
2019-Sep-04 14:01N 47°34' W 052°42'0 0.0
2019-Sep-04 13:55N 47°34' W 052°42'0 0.0
2019-Sep-04 10:07N 47°34' W 052°42'0 0.5
2019-Sep-04 09:57N 47°34' W 052°42'3 6.2
2019-Sep-04 09:28N 47°34' W 052°38'4 8.3
2019-Sep-04 08:57N 47°37' W 052°33'4 8.8
2019-Sep-04 08:27N 47°40' W 052°28'5 8.9
2019-Sep-04 07:56N 47°42' W 052°23'5 9.9
2019-Sep-04 07:28N 47°45' W 052°18'  
Track history (hours):
 
Tides and Currents Weather Stations Pressure Air Temp Water Temp Dewpoint Dewpoint Depression Visibility Wind Speed Wind Dir Waves Ship Positions

Seabourn Pride

Operator: Cunard Seabourn

Last reported at 2019-Sep-13 23:34 UTC. Time now 2019-Sep-17 08:20 UTC.
Position N 41°43' W 070°39'.

Length 134 m; draft 5.7 m.

Type: Ship. MMSI: 311084000.

Date/timePositionNaut miles runAvg speedWind from/ knotsBaromVisibWave heightAir tempDewpointWater temp
2019-Sep-13 23:34N 41°43' W 070°39'111.9
2019-Sep-13 23:28N 41°42' W 070°40'613.7
2019-Sep-13 23:00N 41°36' W 070°43'1014.2
2019-Sep-13 22:18N 41°30' W 070°53'153 6.6
2019-Sep-12 23:08N 40°36' W 074°03'212.3
2019-Sep-12 22:58N 40°38' W 074°03'612.0
2019-Sep-12 22:30N 40°43' W 074°01'3 5.0
2019-Sep-12 21:55N 40°46' W 074°00'0 0.0
2019-Sep-12 15:13N 40°46' W 074°00'0 0.0
2019-Sep-12 11:23N 40°46' W 074°00'0 1.0
2019-Sep-12 10:57N 40°46' W 074°00'4 8.5
2019-Sep-12 10:30N 40°42' W 074°02'1910.9
2019-Sep-12 08:45N 40°27' W 073°46'2 8.0
2019-Sep-12 08:30N 40°27' W 073°44'5 8.8
2019-Sep-12 08:00N 40°28' W 073°38'510.1
2019-Sep-12 07:30N 40°28' W 073°31'7710.2
2019-Sep-11 23:56N 40°54' W 071°56'810.6
2019-Sep-11 23:12N 40°58' W 071°47'210.6
2019-Sep-11 23:00N 40°59' W 071°45'510.8
2019-Sep-11 22:30N 41°02' W 071°38'510.5
2019-Sep-11 22:00N 41°03' W 071°32'510.7
2019-Sep-11 21:31N 41°05' W 071°25'510.4
2019-Sep-11 21:01N 41°09' W 071°21'510.8
2019-Sep-11 20:30N 41°14' W 071°17'511.0
2019-Sep-11 20:00N 41°18' W 071°12'710.1
2019-Sep-11 19:21N 41°24' W 071°08'1613.6
2019-Sep-11 18:11N 41°31' W 070°50'313.8
2019-Sep-11 18:00N 41°32' W 070°47'713.9
2019-Sep-11 17:29N 41°39' W 070°42'  
2019-Sep-04 19:37N 47°29' W 052°35'315.0
2019-Sep-04 19:24N 47°32' W 052°35'510.7
2019-Sep-04 18:57N 47°34' W 052°41'1 0.2
2019-Sep-04 16:10N 47°34' W 052°42'0 0.0
2019-Sep-04 15:42N 47°34' W 052°42'0 0.0
2019-Sep-04 14:48N 47°34' W 052°42'0 0.0
2019-Sep-04 14:01N 47°34' W 052°42'0 0.0
2019-Sep-04 13:55N 47°34' W 052°42'0 0.0
2019-Sep-04 10:07N 47°34' W 052°42'0 0.5
2019-Sep-04 09:57N 47°34' W 052°42'3 6.2
2019-Sep-04 09:28N 47°34' W 052°38'4 8.3
2019-Sep-04 08:57N 47°37' W 052°33'4 8.8
2019-Sep-04 08:27N 47°40' W 052°28'5 8.9
2019-Sep-04 07:56N 47°42' W 052°23'5 9.9
2019-Sep-04 07:28N 47°45' W 052°18'  

Dump ship's entire track history